createdAt,value
2023-03-03T00:00:57.179Z,-0.18
2023-03-03T00:03:25.215Z,-0.23
2023-03-03T00:05:52.343Z,-0.34
2023-03-03T00:08:20.169Z,-0.28
2023-03-03T00:10:46.977Z,-0.30
2023-03-03T00:13:19.915Z,-0.31
2023-03-03T00:15:47.481Z,-0.35
2023-03-03T00:18:33.513Z,-0.42
2023-03-03T00:21:01.846Z,-0.51
2023-03-03T00:23:35.435Z,-0.53
2023-03-03T00:26:02.443Z,-0.55
2023-03-03T00:28:47.439Z,-0.64
2023-03-03T00:31:19.658Z,-0.61
2023-03-03T00:33:50.660Z,-0.58
2023-03-03T00:36:39.396Z,-0.53
2023-03-03T00:39:26.076Z,-0.51
2023-03-03T00:41:52.806Z,-0.49
2023-03-03T00:44:42.187Z,-0.57
2023-03-03T00:47:26.718Z,-0.60
2023-03-03T00:50:21.439Z,-0.71
2023-03-03T00:53:01.304Z,-0.74
2023-03-03T00:55:28.428Z,-0.76
2023-03-03T00:57:54.865Z,-0.80
2023-03-03T01:00:21.294Z,-0.69
2023-03-03T01:02:48.448Z,-0.65
2023-03-03T01:05:17.235Z,-0.77
2023-03-03T01:07:43.720Z,-0.71
2023-03-03T01:10:11.286Z,-0.78
2023-03-03T01:12:38.702Z,-0.93
2023-03-03T01:15:08.451Z,-1.02
2023-03-03T01:17:35.534Z,-1.01
2023-03-03T01:20:02.316Z,-1.02
2023-03-03T01:22:28.752Z,-0.99
2023-03-03T01:24:55.553Z,-1.01
2023-03-03T01:27:22.034Z,-1.02
2023-03-03T01:29:48.507Z,-0.92
2023-03-03T01:32:14.935Z,-0.86
2023-03-03T01:34:41.532Z,-0.92
2023-03-03T01:37:07.958Z,-1.00
2023-03-03T01:39:34.371Z,-0.96
2023-03-03T01:42:02.475Z,-0.91
2023-03-03T01:44:28.890Z,-0.94
2023-03-03T01:47:11.021Z,-0.90
2023-03-03T01:50:03.448Z,-0.92
2023-03-03T01:52:37.275Z,-0.95
2023-03-03T01:55:18.772Z,-0.94
2023-03-03T01:57:55.208Z,-0.82
2023-03-03T02:00:21.839Z,-0.78
2023-03-03T02:02:48.786Z,-0.69
2023-03-03T02:05:16.567Z,-0.69
2023-03-03T02:07:44.207Z,-0.75
2023-03-03T02:10:13.553Z,-0.87
2023-03-03T02:12:51.603Z,-0.89
2023-03-03T02:15:35.966Z,-0.87
2023-03-03T02:18:06.935Z,-0.89
2023-03-03T02:20:52.808Z,-0.90
2023-03-03T02:23:50.167Z,-0.96
2023-03-03T02:26:19.114Z,-0.93
2023-03-03T02:28:45.799Z,-0.87
2023-03-03T02:31:16.652Z,-0.90
2023-03-03T02:33:45.380Z,-0.78
2023-03-03T02:36:33.263Z,-0.82
2023-03-03T02:39:14.057Z,-0.90
2023-03-03T02:41:53.279Z,-0.94
2023-03-03T02:44:25.308Z,-1.01
2023-03-03T02:46:53.418Z,-1.00
2023-03-03T02:49:23.000Z,-1.06
2023-03-03T02:51:49.805Z,-1.06
2023-03-03T02:54:18.812Z,-0.96
2023-03-03T02:56:45.398Z,-0.87
2023-03-03T02:59:12.737Z,-1.01
2023-03-03T03:01:40.614Z,-1.07
2023-03-03T03:04:10.376Z,-1.02
2023-03-03T03:06:37.464Z,-1.03
2023-03-03T03:09:06.145Z,-1.02
2023-03-03T03:11:33.075Z,-1.04
2023-03-03T03:13:59.551Z,-1.11
2023-03-03T03:16:26.171Z,-1.06
2023-03-03T03:18:52.632Z,-1.00
2023-03-03T03:21:19.134Z,-0.89
2023-03-03T03:23:45.570Z,-0.92
2023-03-03T03:26:12.847Z,-1.13
2023-03-03T03:28:39.952Z,-1.21
2023-03-03T03:31:08.881Z,-1.17
2023-03-03T03:33:35.966Z,-1.15
2023-03-03T03:36:04.609Z,-1.21
2023-03-03T03:38:31.649Z,-1.29
2023-03-03T03:40:58.882Z,-1.18
2023-03-03T03:43:25.924Z,-1.15
2023-03-03T03:45:53.063Z,-1.24
2023-03-03T03:48:20.120Z,-1.21
2023-03-03T03:50:50.498Z,-1.29
2023-03-03T03:53:18.322Z,-1.24
2023-03-03T03:55:45.564Z,-1.18
2023-03-03T03:58:17.372Z,-1.18
2023-03-03T04:00:45.395Z,-1.20
2023-03-03T04:03:14.505Z,-1.11
2023-03-03T04:05:41.116Z,-1.11
2023-03-03T04:08:07.570Z,-1.26
2023-03-03T04:10:34.285Z,-1.30
2023-03-03T04:13:00.736Z,-1.10
2023-03-03T04:15:27.198Z,-1.10
2023-03-03T04:17:53.623Z,-1.26
2023-03-03T04:20:20.400Z,-1.37
2023-03-03T04:22:46.952Z,-1.46
2023-03-03T04:25:16.423Z,-1.54
2023-03-03T04:27:43.324Z,-1.51
2023-03-03T04:30:14.189Z,-1.56
2023-03-03T04:32:40.915Z,-1.52
2023-03-03T04:35:10.517Z,-1.43
2023-03-03T04:37:38.733Z,-1.38
2023-03-03T04:40:07.007Z,-1.29
2023-03-03T04:42:33.819Z,-1.25
2023-03-03T04:45:00.255Z,-1.28
2023-03-03T04:47:26.762Z,-1.26
2023-03-03T04:49:53.226Z,-1.19
2023-03-03T04:52:19.796Z,-1.07
2023-03-03T04:54:46.212Z,-1.03
2023-03-03T04:57:12.597Z,-1.03
2023-03-03T04:59:39.080Z,-1.04
2023-03-03T05:02:05.614Z,-1.07
2023-03-03T05:04:32.665Z,-1.15
2023-03-03T05:06:59.168Z,-1.20
2023-03-03T05:09:25.731Z,-1.08
2023-03-03T05:11:52.513Z,-1.20
2023-03-03T05:14:18.971Z,-1.34
2023-03-03T05:16:45.505Z,-1.46
2023-03-03T05:19:12.047Z,-1.51
2023-03-03T05:21:42.340Z,-1.65
2023-03-03T05:24:12.638Z,-1.75
2023-03-03T05:26:40.105Z,-1.89
2023-03-03T05:29:06.942Z,-2.00
2023-03-03T05:31:33.613Z,-2.09
2023-03-03T05:34:00.195Z,-2.15
2023-03-03T05:36:26.704Z,-2.23
2023-03-03T05:38:53.116Z,-2.11
2023-03-03T05:41:19.595Z,-2.08
2023-03-03T05:43:46.016Z,-2.12
2023-03-03T05:46:12.730Z,-2.06
2023-03-03T05:48:39.331Z,-1.91
2023-03-03T05:51:06.028Z,-1.90
2023-03-03T05:53:32.524Z,-1.67
2023-03-03T05:55:58.964Z,-1.68
2023-03-03T05:58:25.730Z,-1.85
2023-03-03T06:00:52.214Z,-2.02
2023-03-03T06:03:18.633Z,-1.91
2023-03-03T06:05:45.120Z,-1.94
2023-03-03T06:08:11.537Z,-1.95
2023-03-03T06:10:38.007Z,-2.07
2023-03-03T06:13:04.484Z,-2.14
2023-03-03T06:15:30.962Z,-2.18
2023-03-03T06:17:57.406Z,-2.08
2023-03-03T06:20:23.843Z,-2.16
2023-03-03T06:22:50.262Z,-2.20
2023-03-03T06:25:16.869Z,-2.26
2023-03-03T06:27:43.396Z,-2.33
2023-03-03T06:30:10.514Z,-2.40
2023-03-03T06:32:36.999Z,-2.35
2023-03-03T06:35:03.650Z,-2.35
2023-03-03T06:37:30.255Z,-2.38
2023-03-03T06:39:56.671Z,-2.37
2023-03-03T06:42:24.852Z,-2.35
2023-03-03T06:44:51.312Z,-2.32
2023-03-03T06:47:17.697Z,-2.31
2023-03-03T06:49:44.124Z,-2.28
2023-03-03T06:52:17.444Z,-2.24
2023-03-03T06:54:43.866Z,-2.17
2023-03-03T06:57:28.227Z,-2.02
2023-03-03T06:59:58.161Z,-2.00
2023-03-03T07:02:24.855Z,-1.97
2023-03-03T07:04:53.353Z,-1.81
2023-03-03T07:07:22.221Z,-1.76
2023-03-03T07:09:54.349Z,-1.68
2023-03-03T07:12:27.318Z,-1.60
2023-03-03T07:15:12.245Z,-1.47
2023-03-03T07:17:42.103Z,-1.21
2023-03-03T07:20:18.404Z,-1.08
2023-03-03T07:22:44.950Z,-0.96
2023-03-03T07:25:21.781Z,-0.48
2023-03-03T07:27:48.254Z,-0.24
2023-03-03T07:30:25.406Z,-0.07
2023-03-03T07:32:56.476Z,0.11
2023-03-03T07:35:38.063Z,0.45
2023-03-03T07:38:20.387Z,0.86
2023-03-03T07:40:58.804Z,1.17
2023-03-03T07:43:37.170Z,1.36
2023-03-03T07:46:22.918Z,1.53
2023-03-03T07:48:50.816Z,1.71
2023-03-03T07:51:25.602Z,2.00
2023-03-03T07:53:53.608Z,2.66
2023-03-03T07:56:34.128Z,2.86
2023-03-03T07:59:15.324Z,2.98
2023-03-03T08:01:44.826Z,3.41
2023-03-03T08:04:39.149Z,4.25
2023-03-03T08:07:16.494Z,4.68
2023-03-03T08:09:44.990Z,4.91
2023-03-03T08:12:19.366Z,4.88
2023-03-03T08:14:46.891Z,4.85
2023-03-03T08:17:21.185Z,5.08
2023-03-03T08:19:49.208Z,5.39
2023-03-03T08:22:36.086Z,5.69
2023-03-03T08:25:02.684Z,6.20
2023-03-03T08:27:29.156Z,6.70
2023-03-03T08:29:55.540Z,6.93
2023-03-03T08:32:22.048Z,7.36
2023-03-03T08:34:48.671Z,7.74
2023-03-03T08:37:15.104Z,7.60
2023-03-03T08:39:41.619Z,7.19
2023-03-03T08:42:08.094Z,7.84
2023-03-03T08:44:34.577Z,8.41
2023-03-03T08:47:01.220Z,8.32
2023-03-03T08:49:27.624Z,8.82
2023-03-03T08:51:54.648Z,9.13
2023-03-03T08:54:21.107Z,9.63
2023-03-03T08:56:47.541Z,10.20
2023-03-03T08:59:13.946Z,10.72
2023-03-03T09:01:40.535Z,11.21
2023-03-03T09:04:07.113Z,11.11
2023-03-03T09:06:33.621Z,11.21
2023-03-03T09:09:00.143Z,11.21
2023-03-03T09:11:28.660Z,11.11
2023-03-03T09:14:14.649Z,11.99
2023-03-03T09:16:49.998Z,12.08
2023-03-03T09:19:27.411Z,12.18
2023-03-03T09:21:56.578Z,12.01
2023-03-03T09:24:26.052Z,11.24
2023-03-03T09:26:53.200Z,11.30
2023-03-03T09:29:30.639Z,11.04
2023-03-03T09:32:00.693Z,10.78
2023-03-03T09:34:36.215Z,9.89
2023-03-03T09:37:19.810Z,10.27
2023-03-03T09:39:50.067Z,10.73
2023-03-03T09:42:28.020Z,10.30
2023-03-03T09:45:06.517Z,10.37
2023-03-03T09:47:52.110Z,10.07
2023-03-03T09:50:34.706Z,9.06
2023-03-03T09:53:29.632Z,8.84
2023-03-03T09:56:04.655Z,9.17
2023-03-03T09:58:45.527Z,8.64
2023-03-03T10:01:58.166Z,8.14
2023-03-03T10:04:49.988Z,7.46
2023-03-03T10:07:35.782Z,7.58
2023-03-03T10:10:15.565Z,7.65
2023-03-03T10:13:02.457Z,7.91
2023-03-03T10:15:43.927Z,7.96
2023-03-03T10:18:29.247Z,9.15
2023-03-03T10:21:31.128Z,8.66
2023-03-03T10:24:22.972Z,8.34
2023-03-03T10:27:13.771Z,7.80
2023-03-03T10:30:09.241Z,7.85
2023-03-03T10:32:48.619Z,7.81
2023-03-03T10:35:33.435Z,7.61
2023-03-03T10:38:10.800Z,7.50
2023-03-03T10:41:04.387Z,7.50
2023-03-03T10:43:48.727Z,7.32
2023-03-03T10:46:33.282Z,7.26
2023-03-03T10:49:02.388Z,7.30
2023-03-03T10:51:44.443Z,7.21
2023-03-03T10:54:35.593Z,7.25
2023-03-03T10:57:17.345Z,7.26
2023-03-03T11:00:05.611Z,7.33
2023-03-03T11:02:43.784Z,7.08
2023-03-03T11:05:22.909Z,7.09
2023-03-03T11:07:56.358Z,7.01
2023-03-03T11:10:39.353Z,7.07
2023-03-03T11:13:35.215Z,7.21
2023-03-03T11:16:20.110Z,7.50
2023-03-03T11:18:49.683Z,7.83
2023-03-03T11:21:24.115Z,7.75
2023-03-03T11:24:24.777Z,7.58
2023-03-03T11:27:16.274Z,7.45
2023-03-03T11:30:07.051Z,7.42
2023-03-03T11:32:45.687Z,7.25
2023-03-03T11:35:38.495Z,7.24
2023-03-03T11:38:24.616Z,7.16
2023-03-03T11:40:55.744Z,7.13
2023-03-03T11:43:36.517Z,7.28
2023-03-03T11:46:34.070Z,7.19
2023-03-03T11:49:15.503Z,7.32
2023-03-03T11:52:03.244Z,7.53
2023-03-03T11:55:10.701Z,7.51
2023-03-03T11:57:54.370Z,7.76
2023-03-03T12:00:29.934Z,7.93
2023-03-03T12:03:37.750Z,7.93
2023-03-03T12:06:12.528Z,7.78
2023-03-03T12:09:03.635Z,7.39
2023-03-03T12:11:32.740Z,7.46
2023-03-03T12:14:10.968Z,7.39
2023-03-03T12:16:57.279Z,7.57
2023-03-03T12:19:51.659Z,7.32
2023-03-03T12:22:31.816Z,7.45
2023-03-03T12:25:13.568Z,7.41
2023-03-03T12:27:56.306Z,7.16
2023-03-03T12:30:51.653Z,6.97
2023-03-03T12:33:37.369Z,7.13
2023-03-03T12:36:28.143Z,7.00
2023-03-03T12:39:34.723Z,6.75
2023-03-03T12:42:38.094Z,6.85
2023-03-03T12:45:41.567Z,6.88
2023-03-03T12:48:25.063Z,6.85
2023-03-03T12:50:59.020Z,6.87
2023-03-03T12:53:39.535Z,6.89
2023-03-03T12:56:08.647Z,7.16
2023-03-03T12:58:50.132Z,7.25
2023-03-03T13:01:22.306Z,7.25
2023-03-03T13:04:10.640Z,7.23
2023-03-03T13:06:45.413Z,7.50
2023-03-03T13:09:43.739Z,8.21
2023-03-03T13:12:47.720Z,8.33
2023-03-03T13:15:32.281Z,8.09
2023-03-03T13:18:05.646Z,7.95
2023-03-03T13:20:41.453Z,7.80
2023-03-03T13:23:38.165Z,7.71
2023-03-03T13:26:45.186Z,7.68
2023-03-03T13:29:20.669Z,7.35
2023-03-03T13:31:51.935Z,7.33
2023-03-03T13:34:27.956Z,7.34
2023-03-03T13:37:03.644Z,7.34
2023-03-03T13:39:37.412Z,7.50
2023-03-03T13:42:15.268Z,7.70
2023-03-03T13:44:43.362Z,7.83
2023-03-03T13:47:31.116Z,8.12
2023-03-03T13:50:11.979Z,8.08
2023-03-03T13:53:09.645Z,8.70
2023-03-03T13:55:43.210Z,8.06
2023-03-03T13:58:36.800Z,8.08
2023-03-03T14:01:19.786Z,7.81
2023-03-03T14:04:14.990Z,7.43
2023-03-03T14:06:51.058Z,7.23
2023-03-03T14:09:46.107Z,6.91
2023-03-03T14:12:52.223Z,6.67
2023-03-03T14:15:28.974Z,6.61
2023-03-03T14:18:03.530Z,6.60
2023-03-03T14:20:34.462Z,6.55
2023-03-03T14:23:12.994Z,6.70
2023-03-03T14:26:05.243Z,6.91
2023-03-03T14:28:47.089Z,7.05
2023-03-03T14:31:22.107Z,7.13
2023-03-03T14:34:01.083Z,7.24
2023-03-03T14:36:40.696Z,7.31
2023-03-03T14:39:32.270Z,7.36
2023-03-03T14:41:59.342Z,7.34
2023-03-03T14:44:37.376Z,7.50
2023-03-03T14:47:24.467Z,7.30
2023-03-03T14:49:59.823Z,7.23
2023-03-03T14:52:33.389Z,7.11
2023-03-03T14:55:05.277Z,7.19
2023-03-03T14:57:47.330Z,7.32
2023-03-03T15:00:13.722Z,7.17
2023-03-03T15:02:52.156Z,7.01
2023-03-03T15:05:23.766Z,6.69
2023-03-03T15:07:57.443Z,6.65
2023-03-03T15:10:29.984Z,6.66
2023-03-03T15:12:56.583Z,6.59
2023-03-03T15:15:26.828Z,6.53
2023-03-03T15:18:02.549Z,6.43
2023-03-03T15:20:40.792Z,6.21
2023-03-03T15:23:44.357Z,6.21
2023-03-03T15:26:21.597Z,6.05
2023-03-03T15:29:06.596Z,6.01
2023-03-03T15:31:35.990Z,5.98
2023-03-03T15:34:23.998Z,6.10
2023-03-03T15:37:11.772Z,6.12
2023-03-03T15:39:56.165Z,6.09
2023-03-03T15:42:48.990Z,6.02
2023-03-03T15:45:33.842Z,5.85
2023-03-03T15:48:09.418Z,5.85
2023-03-03T15:51:03.424Z,5.85
2023-03-03T15:54:07.084Z,5.76
2023-03-03T15:56:42.414Z,5.78
2023-03-03T15:59:33.768Z,5.72
2023-03-03T16:02:15.850Z,5.70
2023-03-03T16:05:01.032Z,5.67
2023-03-03T16:07:31.850Z,5.53
2023-03-03T16:10:11.879Z,5.47
2023-03-03T16:12:56.581Z,5.50
2023-03-03T16:15:36.806Z,5.56
2023-03-03T16:18:31.701Z,5.50
2023-03-03T16:21:11.575Z,5.50
2023-03-03T16:23:47.257Z,5.45
2023-03-03T16:26:23.823Z,5.46
2023-03-03T16:28:50.216Z,5.45
2023-03-03T16:31:25.020Z,5.40
2023-03-03T16:34:06.894Z,5.36
2023-03-03T16:36:45.394Z,5.37
2023-03-03T16:39:32.308Z,5.29
2023-03-03T16:42:21.562Z,5.29
2023-03-03T16:45:15.429Z,5.25
2023-03-03T16:48:19.383Z,5.19
2023-03-03T16:50:55.107Z,5.17
2023-03-03T16:53:45.628Z,5.15
2023-03-03T16:56:11.999Z,5.13
2023-03-03T16:59:04.472Z,5.10
2023-03-03T17:01:56.176Z,5.09
2023-03-03T17:04:39.528Z,5.07
2023-03-03T17:07:22.220Z,5.04
2023-03-03T17:10:05.652Z,5.03
2023-03-03T17:12:56.889Z,5.01
2023-03-03T17:15:38.467Z,5.00
2023-03-03T17:18:24.103Z,4.98
2023-03-03T17:20:54.467Z,4.99
2023-03-03T17:23:40.644Z,4.98
2023-03-03T17:26:24.436Z,4.95
2023-03-03T17:29:05.345Z,4.94
2023-03-03T17:31:56.622Z,4.91
2023-03-03T17:34:43.295Z,4.94
2023-03-03T17:37:35.213Z,4.94
2023-03-03T17:40:24.963Z,4.91
2023-03-03T17:43:13.076Z,4.91
2023-03-03T17:45:43.136Z,4.91
2023-03-03T17:48:21.793Z,4.93
2023-03-03T17:51:25.913Z,4.95
2023-03-03T17:54:14.416Z,4.92
2023-03-03T17:56:53.030Z,4.92
2023-03-03T17:59:29.818Z,4.91
2023-03-03T18:02:50.270Z,4.92
2023-03-03T18:05:54.463Z,4.93
2023-03-03T18:08:42.788Z,4.91
2023-03-03T18:11:22.086Z,4.92
2023-03-03T18:14:10.442Z,4.91
2023-03-03T18:16:54.912Z,4.90
2023-03-03T18:19:59.123Z,4.86
2023-03-03T18:22:41.361Z,4.86
2023-03-03T18:25:46.933Z,4.92
2023-03-03T18:28:21.746Z,4.92
2023-03-03T18:31:00.840Z,4.91
2023-03-03T18:33:42.025Z,4.91
2023-03-03T18:36:39.558Z,4.91
2023-03-03T18:39:12.508Z,4.89
2023-03-03T18:42:10.734Z,4.88
2023-03-03T18:44:37.421Z,4.87
2023-03-03T18:47:03.938Z,4.89
2023-03-03T18:50:07.955Z,4.88
2023-03-03T18:52:36.324Z,4.89
2023-03-03T18:55:21.729Z,4.87
2023-03-03T18:58:02.732Z,4.86
2023-03-03T19:00:30.585Z,4.86
2023-03-03T19:02:59.630Z,4.86
2023-03-03T19:05:36.395Z,4.85
2023-03-03T19:08:18.573Z,4.83
2023-03-03T19:10:53.922Z,4.81
2023-03-03T19:13:32.181Z,4.81
2023-03-03T19:16:04.500Z,4.84
2023-03-03T19:18:42.714Z,4.84
2023-03-03T19:21:12.113Z,4.83
2023-03-03T19:23:49.645Z,4.80
2023-03-03T19:26:24.957Z,4.78
2023-03-03T19:29:23.733Z,4.76
2023-03-03T19:31:56.129Z,4.75
2023-03-03T19:34:38.520Z,4.74
2023-03-03T19:37:21.921Z,4.73
2023-03-03T19:40:05.221Z,4.73
2023-03-03T19:42:31.609Z,4.75
2023-03-03T19:45:19.116Z,4.78
2023-03-03T19:48:14.539Z,4.85
2023-03-03T19:50:52.414Z,4.83
2023-03-03T19:53:27.782Z,4.82
2023-03-03T19:56:04.048Z,4.83
2023-03-03T19:58:58.481Z,4.83
2023-03-03T20:01:30.102Z,4.80
2023-03-03T20:04:19.131Z,4.78
2023-03-03T20:07:15.791Z,4.75
2023-03-03T20:09:55.160Z,4.75
2023-03-03T20:12:39.264Z,4.73
2023-03-03T20:15:18.817Z,4.73
2023-03-03T20:17:59.868Z,4.75
2023-03-03T20:21:04.642Z,4.75
2023-03-03T20:23:59.708Z,4.72
2023-03-03T20:26:33.899Z,4.74
2023-03-03T20:29:34.271Z,4.69
2023-03-03T20:32:28.713Z,4.69
2023-03-03T20:35:09.420Z,4.71
2023-03-03T20:38:13.745Z,4.70
2023-03-03T20:41:31.041Z,4.73
2023-03-03T20:43:57.522Z,4.71
2023-03-03T20:46:23.975Z,4.68
2023-03-03T20:49:08.860Z,4.72
2023-03-03T20:52:00.311Z,4.76
2023-03-03T20:54:29.785Z,4.75
2023-03-03T20:57:19.420Z,4.78
2023-03-03T21:00:21.764Z,4.78
2023-03-03T21:02:57.242Z,4.76
2023-03-03T21:05:23.936Z,4.74
2023-03-03T21:07:57.563Z,4.72
2023-03-03T21:10:26.936Z,4.72
2023-03-03T21:12:58.652Z,4.69
2023-03-03T21:15:35.575Z,4.67
2023-03-03T21:18:20.116Z,4.66
2023-03-03T21:20:46.500Z,4.66
2023-03-03T21:23:13.005Z,4.67
2023-03-03T21:25:57.679Z,4.67
2023-03-03T21:28:30.378Z,4.69
2023-03-03T21:31:07.293Z,4.70
2023-03-03T21:33:53.127Z,4.67
2023-03-03T21:36:42.316Z,4.65
2023-03-03T21:39:30.021Z,4.61
2023-03-03T21:42:08.454Z,4.60
2023-03-03T21:44:52.107Z,4.61
2023-03-03T21:47:21.926Z,4.61
2023-03-03T21:49:52.177Z,4.63
2023-03-03T21:52:20.475Z,4.67
2023-03-03T21:54:48.819Z,4.68
2023-03-03T21:57:15.423Z,4.65
2023-03-03T21:59:41.889Z,4.65
2023-03-03T22:02:09.132Z,4.70
2023-03-03T22:04:38.301Z,4.69
2023-03-03T22:07:05.464Z,4.68
2023-03-03T22:09:31.962Z,4.69
2023-03-03T22:11:58.324Z,4.70
2023-03-03T22:14:24.759Z,4.70
2023-03-03T22:16:51.182Z,4.74
2023-03-03T22:19:17.734Z,4.75
2023-03-03T22:21:44.354Z,4.73
2023-03-03T22:24:10.767Z,4.73
2023-03-03T22:26:37.250Z,4.69
2023-03-03T22:29:04.862Z,4.67
2023-03-03T22:31:31.362Z,4.64
2023-03-03T22:33:57.982Z,4.63
2023-03-03T22:36:24.631Z,4.62
2023-03-03T22:38:51.195Z,4.62
2023-03-03T22:41:17.954Z,4.60
2023-03-03T22:43:44.513Z,4.61
2023-03-03T22:46:11.402Z,4.61
2023-03-03T22:48:38.608Z,4.62
2023-03-03T22:51:05.314Z,4.59
2023-03-03T22:53:31.716Z,4.58
2023-03-03T22:55:58.139Z,4.60
2023-03-03T22:58:27.467Z,4.65
2023-03-03T23:00:54.385Z,4.68
2023-03-03T23:03:21.309Z,4.67
2023-03-03T23:05:51.509Z,4.66
2023-03-03T23:08:19.494Z,4.65
2023-03-03T23:10:46.097Z,4.60
2023-03-03T23:13:13.196Z,4.62
2023-03-03T23:15:39.608Z,4.62
2023-03-03T23:18:06.113Z,4.59
2023-03-03T23:20:32.787Z,4.57
2023-03-03T23:22:59.710Z,4.55
2023-03-03T23:25:26.433Z,4.53
2023-03-03T23:27:53.232Z,4.53
2023-03-03T23:30:21.162Z,4.52
2023-03-03T23:32:48.731Z,4.52
2023-03-03T23:35:15.858Z,4.51
2023-03-03T23:37:42.301Z,4.50
2023-03-03T23:40:09.733Z,4.48
2023-03-03T23:42:36.219Z,4.49
2023-03-03T23:45:02.760Z,4.50
2023-03-03T23:47:29.438Z,4.50
2023-03-03T23:49:55.873Z,4.58
2023-03-03T23:52:22.295Z,4.65
2023-03-03T23:54:48.731Z,4.65
2023-03-03T23:57:15.099Z,4.64
2023-03-03T23:59:41.510Z,4.65
